Eijsden, Netherlands
Current Conditions -  °F | °C
As of 1:25 AM on Saturday 22 Nov 2014 (Local Time) from EHBK Reporting Station
Clear Clear  
Wind Chill: 34°   Ceiling: Unl
Heat Index: 39°   Visibility: 4mi
Dew Point: 39°   Wind: 8mph
Humidity: 100%   Direction: 110°ESE
Pressure: 30.06"   Gusts: NA
Location:  50.78°N, 5.72°E
Report Text: EHBK 220025Z AUTO 11007KT 6000 NSC 04/04 Q1018
Loading
Personal Weather Stations






























Interactive Weather Map New forecast layout! Learn more

10-Day Weather Forecast

Advertisements
Track Severe Weather on mobile